createdAt,value
2023-02-18T00:01:24.082Z,10.56
2023-02-18T00:03:53.110Z,10.59
2023-02-18T00:06:34.662Z,10.59
2023-02-18T00:09:04.287Z,10.62
2023-02-18T00:11:35.049Z,10.61
2023-02-18T00:14:04.433Z,10.63
2023-02-18T00:16:32.930Z,10.65
2023-02-18T00:19:05.092Z,10.65
2023-02-18T00:21:35.669Z,10.64
2023-02-18T00:24:03.700Z,10.63
2023-02-18T00:26:31.567Z,10.63
2023-02-18T00:28:59.487Z,10.63
2023-02-18T00:31:32.866Z,10.60
2023-02-18T00:34:01.517Z,10.60
2023-02-18T00:36:30.048Z,10.59
2023-02-18T00:39:04.720Z,10.57
2023-02-18T00:41:32.850Z,10.50
2023-02-18T00:44:00.814Z,10.49
2023-02-18T00:46:29.782Z,10.45
2023-02-18T00:48:58.012Z,10.40
2023-02-18T00:51:26.713Z,10.41
2023-02-18T00:53:55.049Z,10.40
2023-02-18T00:56:22.819Z,10.42
2023-02-18T00:58:51.505Z,10.40
2023-02-18T01:01:20.200Z,10.41
2023-02-18T01:03:47.993Z,10.41
2023-02-18T01:06:15.969Z,10.42
2023-02-18T01:08:44.315Z,10.42
2023-02-18T01:11:13.130Z,10.43
2023-02-18T01:13:41.716Z,10.44
2023-02-18T01:16:10.708Z,10.45
2023-02-18T01:18:39.758Z,10.44
2023-02-18T01:21:09.766Z,10.46
2023-02-18T01:23:41.399Z,10.46
2023-02-18T01:26:10.414Z,10.47
2023-02-18T01:28:38.530Z,10.47
2023-02-18T01:31:13.730Z,10.45
2023-02-18T01:33:42.168Z,10.45
2023-02-18T01:36:11.209Z,10.41
2023-02-18T01:38:39.459Z,10.41
2023-02-18T01:41:07.652Z,10.39
2023-02-18T01:43:36.167Z,10.37
2023-02-18T01:46:16.984Z,10.37
2023-02-18T01:48:47.322Z,10.35
2023-02-18T01:51:26.736Z,10.32
2023-02-18T01:54:07.654Z,10.30
2023-02-18T01:56:51.069Z,10.27
2023-02-18T01:59:25.239Z,10.25
2023-02-18T02:01:54.145Z,10.23
2023-02-18T02:04:23.032Z,10.22
2023-02-18T02:06:50.842Z,10.18
2023-02-18T02:09:21.508Z,10.16
2023-02-18T02:11:58.083Z,10.16
2023-02-18T02:14:53.836Z,10.13
2023-02-18T02:17:59.158Z,10.16
2023-02-18T02:20:47.090Z,10.16
2023-02-18T02:23:20.565Z,10.15
2023-02-18T02:26:24.798Z,10.18
2023-02-18T02:29:11.116Z,10.19
2023-02-18T02:32:04.361Z,10.23
2023-02-18T02:34:59.328Z,10.24
2023-02-18T02:38:00.972Z,10.24
2023-02-18T02:40:50.040Z,10.28
2023-02-18T02:43:29.054Z,10.30
2023-02-18T02:46:10.589Z,10.30
2023-02-18T02:48:47.898Z,10.33
2023-02-18T02:51:29.162Z,10.33
2023-02-18T02:54:09.335Z,10.34
2023-02-18T02:56:37.099Z,10.33
2023-02-18T02:59:09.087Z,10.36
2023-02-18T03:02:19.667Z,10.36
2023-02-18T03:05:41.302Z,10.37
2023-02-18T03:08:33.103Z,10.35
2023-02-18T03:11:08.566Z,10.37
2023-02-18T03:13:38.926Z,10.36
2023-02-18T03:16:30.901Z,10.34
2023-02-18T03:19:03.352Z,10.34
2023-02-18T03:21:36.568Z,10.34
2023-02-18T03:24:14.703Z,10.31
2023-02-18T03:26:48.239Z,10.37
2023-02-18T03:29:18.455Z,10.36
2023-02-18T03:31:50.448Z,10.35
2023-02-18T03:34:25.158Z,10.38
2023-02-18T03:36:54.581Z,10.38
2023-02-18T03:39:26.480Z,10.38
2023-02-18T03:41:54.774Z,10.38
2023-02-18T03:44:22.833Z,10.37
2023-02-18T03:46:50.570Z,10.39
2023-02-18T03:49:18.282Z,10.38
2023-02-18T03:51:46.195Z,10.37
2023-02-18T03:54:15.688Z,10.39
2023-02-18T03:56:43.760Z,10.38
2023-02-18T03:59:13.070Z,10.40
2023-02-18T04:01:41.514Z,10.36
2023-02-18T04:04:09.327Z,10.37
2023-02-18T04:06:37.287Z,10.38
2023-02-18T04:09:09.856Z,10.38
2023-02-18T04:11:39.748Z,10.39
2023-02-18T04:14:08.408Z,10.35
2023-02-18T04:16:36.296Z,10.36
2023-02-18T04:19:04.093Z,10.37
2023-02-18T04:21:31.859Z,10.38
2023-02-18T04:23:59.557Z,10.37
2023-02-18T04:26:27.319Z,10.37
2023-02-18T04:28:54.947Z,10.37
2023-02-18T04:31:22.791Z,10.34
2023-02-18T04:33:50.548Z,10.34
2023-02-18T04:36:18.207Z,10.33
2023-02-18T04:38:45.892Z,10.30
2023-02-18T04:41:14.063Z,10.30
2023-02-18T04:43:41.684Z,10.29
2023-02-18T04:46:09.667Z,10.25
2023-02-18T04:48:37.592Z,10.26
2023-02-18T04:51:05.816Z,10.23
2023-02-18T04:53:33.527Z,10.21
2023-02-18T04:56:01.659Z,10.19
2023-02-18T04:58:29.380Z,10.18
2023-02-18T05:01:01.818Z,10.17
2023-02-18T05:03:31.278Z,10.18
2023-02-18T05:05:59.834Z,10.20
2023-02-18T05:08:27.655Z,10.21
2023-02-18T05:10:55.406Z,10.23
2023-02-18T05:13:23.999Z,10.22
2023-02-18T05:15:52.052Z,10.21
2023-02-18T05:18:19.769Z,10.24
2023-02-18T05:20:47.435Z,10.25
2023-02-18T05:23:15.845Z,10.24
2023-02-18T05:25:43.494Z,10.24
2023-02-18T05:28:11.148Z,10.26
2023-02-18T05:30:39.047Z,10.28
2023-02-18T05:33:06.757Z,10.27
2023-02-18T05:35:34.624Z,10.28
2023-02-18T05:38:02.381Z,10.28
2023-02-18T05:40:30.188Z,10.31
2023-02-18T05:42:57.873Z,10.30
2023-02-18T05:45:25.588Z,10.31
2023-02-18T05:47:53.305Z,10.30
2023-02-18T05:50:21.171Z,10.28
2023-02-18T05:52:48.912Z,10.28
2023-02-18T05:55:16.670Z,10.28
2023-02-18T05:57:44.352Z,10.28
2023-02-18T06:00:12.738Z,10.27
2023-02-18T06:02:40.732Z,10.26
2023-02-18T06:05:08.818Z,10.24
2023-02-18T06:07:36.764Z,10.18
2023-02-18T06:10:05.728Z,10.18
2023-02-18T06:12:33.599Z,10.16
2023-02-18T06:15:01.261Z,10.14
2023-02-18T06:17:28.925Z,10.10
2023-02-18T06:19:56.643Z,10.08
2023-02-18T06:22:24.284Z,10.05
2023-02-18T06:24:51.980Z,10.01
2023-02-18T06:27:19.689Z,10.00
2023-02-18T06:29:47.317Z,9.97
2023-02-18T06:32:15.075Z,9.98
2023-02-18T06:34:42.917Z,9.95
2023-02-18T06:37:10.606Z,9.96
2023-02-18T06:39:39.828Z,9.94
2023-02-18T06:42:07.407Z,9.94
2023-02-18T06:44:37.500Z,9.93
2023-02-18T06:47:05.567Z,9.91
2023-02-18T06:49:33.274Z,9.93
2023-02-18T06:52:00.848Z,9.93
2023-02-18T06:54:28.529Z,9.94
2023-02-18T06:56:56.314Z,9.95
2023-02-18T06:59:24.070Z,9.94
2023-02-18T07:01:51.700Z,9.91
2023-02-18T07:04:19.434Z,9.90
2023-02-18T07:06:47.057Z,9.88
2023-02-18T07:09:14.752Z,9.90
2023-02-18T07:11:42.592Z,9.87
2023-02-18T07:14:10.326Z,9.90
2023-02-18T07:16:38.039Z,9.91
2023-02-18T07:19:05.772Z,9.95
2023-02-18T07:21:33.532Z,9.97
2023-02-18T07:24:01.235Z,9.99
2023-02-18T07:26:29.022Z,10.03
2023-02-18T07:28:56.792Z,10.06
2023-02-18T07:31:24.628Z,10.10
2023-02-18T07:33:52.409Z,10.17
2023-02-18T07:36:20.080Z,10.26
2023-02-18T07:38:47.931Z,10.37
2023-02-18T07:41:22.102Z,10.44
2023-02-18T07:43:50.463Z,10.53
2023-02-18T07:46:18.488Z,10.63
2023-02-18T07:48:46.292Z,10.71
2023-02-18T07:51:14.582Z,10.73
2023-02-18T07:53:42.916Z,10.75
2023-02-18T07:56:10.978Z,10.78
2023-02-18T07:58:40.146Z,10.83
2023-02-18T08:01:15.767Z,10.86
2023-02-18T08:03:44.144Z,10.92
2023-02-18T08:06:23.305Z,11.00
2023-02-18T08:08:51.099Z,11.22
2023-02-18T08:11:19.803Z,11.27
2023-02-18T08:13:49.272Z,11.31
2023-02-18T08:16:19.004Z,11.30
2023-02-18T08:18:48.958Z,11.34
2023-02-18T08:21:18.496Z,11.30
2023-02-18T08:23:46.321Z,11.29
2023-02-18T08:26:14.905Z,11.38
2023-02-18T08:28:42.990Z,11.40
2023-02-18T08:31:18.173Z,11.44
2023-02-18T08:33:45.898Z,11.50
2023-02-18T08:36:13.678Z,11.56
2023-02-18T08:38:41.397Z,11.66
2023-02-18T08:41:10.724Z,11.71
2023-02-18T08:43:38.986Z,11.77
2023-02-18T08:46:06.927Z,11.78
2023-02-18T08:48:34.770Z,11.83
2023-02-18T08:51:12.849Z,11.86
2023-02-18T08:53:41.152Z,11.87
2023-02-18T08:56:11.895Z,11.88
2023-02-18T08:58:39.924Z,11.86
2023-02-18T09:01:10.338Z,11.82
2023-02-18T09:03:39.068Z,11.82
2023-02-18T09:06:07.377Z,11.81
2023-02-18T09:08:35.116Z,11.80
2023-02-18T09:11:09.225Z,11.79
2023-02-18T09:13:37.093Z,11.84
2023-02-18T09:16:11.829Z,11.82
2023-02-18T09:18:39.902Z,11.88
2023-02-18T09:21:10.769Z,11.90
2023-02-18T09:23:38.817Z,11.88
2023-02-18T09:26:08.548Z,11.96
2023-02-18T09:28:37.691Z,12.01
2023-02-18T09:31:14.240Z,12.05
2023-02-18T09:33:45.921Z,12.07
2023-02-18T09:36:14.459Z,12.14
2023-02-18T09:38:42.223Z,12.18
2023-02-18T09:41:31.384Z,12.22
2023-02-18T09:44:05.132Z,12.25
2023-02-18T09:46:39.972Z,12.33
2023-02-18T09:49:29.707Z,12.41
2023-02-18T09:52:03.669Z,12.46
2023-02-18T09:54:31.322Z,12.49
2023-02-18T09:57:00.955Z,12.51
2023-02-18T09:59:29.544Z,12.53
2023-02-18T10:01:58.223Z,12.51
2023-02-18T10:04:33.253Z,12.53
2023-02-18T10:07:04.781Z,12.54
2023-02-18T10:09:42.094Z,12.59
2023-02-18T10:12:20.048Z,12.64
2023-02-18T10:14:55.924Z,12.69
2023-02-18T10:17:31.033Z,12.74
2023-02-18T10:20:01.444Z,12.72
2023-02-18T10:22:31.345Z,12.76
2023-02-18T10:25:01.974Z,12.83
2023-02-18T10:27:36.437Z,12.83
2023-02-18T10:30:20.146Z,12.88
2023-02-18T10:32:49.749Z,12.82
2023-02-18T10:35:32.317Z,12.88
2023-02-18T10:38:14.441Z,12.90
2023-02-18T10:41:09.613Z,12.96
2023-02-18T10:44:01.609Z,12.90
2023-02-18T10:46:54.245Z,12.89
2023-02-18T10:49:56.054Z,12.88
2023-02-18T10:52:24.649Z,12.90
2023-02-18T10:55:08.227Z,12.81
2023-02-18T10:57:36.542Z,12.82
2023-02-18T11:00:28.965Z,12.87
2023-02-18T11:03:20.204Z,12.88
2023-02-18T11:05:50.346Z,12.92
2023-02-18T11:08:30.457Z,12.94
2023-02-18T11:10:59.313Z,12.96
2023-02-18T11:13:33.979Z,13.04
2023-02-18T11:16:13.220Z,13.15
2023-02-18T11:18:43.978Z,13.15
2023-02-18T11:21:46.830Z,13.17
2023-02-18T11:24:17.823Z,13.28
2023-02-18T11:26:45.941Z,13.31
2023-02-18T11:29:22.076Z,13.43
2023-02-18T11:31:53.906Z,13.50
2023-02-18T11:34:24.704Z,13.59
2023-02-18T11:36:53.769Z,13.59
2023-02-18T11:39:30.131Z,13.66
2023-02-18T11:42:01.730Z,13.59
2023-02-18T11:44:39.600Z,13.68
2023-02-18T11:47:16.243Z,13.77
2023-02-18T11:49:46.106Z,13.85
2023-02-18T11:52:28.618Z,13.98
2023-02-18T11:55:07.454Z,14.06
2023-02-18T11:57:38.353Z,14.10
2023-02-18T12:00:23.171Z,14.14
2023-02-18T12:02:52.046Z,14.16
2023-02-18T12:05:26.018Z,14.14
2023-02-18T12:08:00.892Z,14.12
2023-02-18T12:10:34.224Z,14.22
2023-02-18T12:13:12.219Z,14.24
2023-02-18T12:16:14.510Z,14.26
2023-02-18T12:19:22.294Z,14.22
2023-02-18T12:22:23.338Z,14.11
2023-02-18T12:25:14.970Z,14.04
2023-02-18T12:28:15.835Z,13.96
2023-02-18T12:31:17.410Z,13.99
2023-02-18T12:33:48.014Z,13.90
2023-02-18T12:36:39.631Z,13.88
2023-02-18T12:39:47.629Z,13.87
2023-02-18T12:42:33.940Z,13.88
2023-02-18T12:45:36.237Z,13.87
2023-02-18T12:48:37.468Z,13.77
2023-02-18T12:51:16.961Z,13.76
2023-02-18T12:54:23.492Z,13.77
2023-02-18T12:57:17.135Z,13.73
2023-02-18T13:00:17.111Z,13.72
2023-02-18T13:03:15.254Z,13.76
2023-02-18T13:05:51.645Z,13.82
2023-02-18T13:08:34.469Z,13.85
2023-02-18T13:11:05.605Z,13.94
2023-02-18T13:13:42.252Z,13.98
2023-02-18T13:16:21.052Z,14.04
2023-02-18T13:18:57.274Z,14.09
2023-02-18T13:21:25.475Z,14.11
2023-02-18T13:23:59.665Z,14.15
2023-02-18T13:26:30.217Z,14.24
2023-02-18T13:29:31.083Z,14.35
2023-02-18T13:32:27.164Z,14.41
2023-02-18T13:35:08.294Z,14.44
2023-02-18T13:37:54.017Z,14.45
2023-02-18T13:40:26.725Z,14.53
2023-02-18T13:42:55.241Z,14.56
2023-02-18T13:45:29.156Z,14.63
2023-02-18T13:47:58.072Z,14.61
2023-02-18T13:50:28.962Z,14.66
2023-02-18T13:53:08.615Z,14.64
2023-02-18T13:55:39.308Z,14.74
2023-02-18T13:58:25.700Z,14.74
2023-02-18T14:01:25.139Z,14.61
2023-02-18T14:03:59.135Z,14.52
2023-02-18T14:06:38.715Z,14.54
2023-02-18T14:09:27.022Z,14.52
2023-02-18T14:12:17.354Z,14.53
2023-02-18T14:14:45.514Z,14.58
2023-02-18T14:17:31.607Z,14.53
2023-02-18T14:20:02.321Z,14.56
2023-02-18T14:22:32.663Z,14.55
2023-02-18T14:25:23.890Z,14.58
2023-02-18T14:27:54.070Z,14.54
2023-02-18T14:30:24.676Z,14.56
2023-02-18T14:32:57.502Z,14.52
2023-02-18T14:35:52.966Z,14.51
2023-02-18T14:38:45.135Z,14.48
2023-02-18T14:41:55.686Z,14.45
2023-02-18T14:44:45.068Z,14.43
2023-02-18T14:47:24.936Z,14.24
2023-02-18T14:50:00.867Z,14.19
2023-02-18T14:52:41.707Z,14.06
2023-02-18T14:55:37.457Z,13.94
2023-02-18T14:58:12.227Z,13.91
2023-02-18T15:00:44.383Z,13.82
2023-02-18T15:03:18.950Z,13.76
2023-02-18T15:05:47.522Z,13.72
2023-02-18T15:08:24.122Z,13.65
2023-02-18T15:10:59.933Z,13.62
2023-02-18T15:13:47.453Z,13.53
2023-02-18T15:16:24.796Z,13.50
2023-02-18T15:18:59.973Z,13.50
2023-02-18T15:21:36.548Z,13.50
2023-02-18T15:24:38.068Z,13.47
2023-02-18T15:27:13.846Z,13.41
2023-02-18T15:29:41.787Z,13.39
2023-02-18T15:32:23.675Z,13.35
2023-02-18T15:34:54.308Z,13.30
2023-02-18T15:37:22.019Z,13.28
2023-02-18T15:39:49.875Z,13.22
2023-02-18T15:42:33.157Z,13.17
2023-02-18T15:45:20.987Z,13.14
2023-02-18T15:47:52.628Z,13.07
2023-02-18T15:50:37.534Z,13.03
2023-02-18T15:53:14.788Z,12.98
2023-02-18T15:55:44.947Z,12.91
2023-02-18T15:58:18.062Z,12.88
2023-02-18T16:00:55.228Z,12.87
2023-02-18T16:03:31.727Z,12.83
2023-02-18T16:06:22.852Z,12.82
2023-02-18T16:09:31.629Z,12.75
2023-02-18T16:12:03.221Z,12.73
2023-02-18T16:14:33.438Z,12.69
2023-02-18T16:17:16.594Z,12.64
2023-02-18T16:20:04.382Z,12.53
2023-02-18T16:22:32.725Z,12.50
2023-02-18T16:25:22.067Z,12.42
2023-02-18T16:27:58.826Z,12.34
2023-02-18T16:30:30.203Z,12.26
2023-02-18T16:32:59.090Z,12.22
2023-02-18T16:35:44.005Z,12.11
2023-02-18T16:38:23.918Z,12.08
2023-02-18T16:40:53.275Z,12.02
2023-02-18T16:43:29.952Z,11.96
2023-02-18T16:46:00.031Z,11.92
2023-02-18T16:48:29.379Z,11.90
2023-02-18T16:50:57.551Z,11.86
2023-02-18T16:53:25.432Z,11.85
2023-02-18T16:55:53.180Z,11.82
2023-02-18T16:58:20.907Z,11.81
2023-02-18T17:00:51.114Z,11.75
2023-02-18T17:03:19.568Z,11.72
2023-02-18T17:05:47.782Z,11.68
2023-02-18T17:08:17.460Z,11.68
2023-02-18T17:10:45.732Z,11.64
2023-02-18T17:13:22.382Z,11.61
2023-02-18T17:15:53.024Z,11.55
2023-02-18T17:18:21.314Z,11.52
2023-02-18T17:20:50.092Z,11.45
2023-02-18T17:23:20.100Z,11.43
2023-02-18T17:25:51.848Z,11.38
2023-02-18T17:28:20.479Z,11.37
2023-02-18T17:30:53.706Z,11.37
2023-02-18T17:33:21.467Z,11.37
2023-02-18T17:35:49.413Z,11.37
2023-02-18T17:38:19.637Z,11.35
2023-02-18T17:40:47.479Z,11.34
2023-02-18T17:43:16.769Z,11.31
2023-02-18T17:45:53.917Z,11.25
2023-02-18T17:48:21.918Z,11.20
2023-02-18T17:50:49.646Z,11.17
2023-02-18T17:53:18.681Z,11.12
2023-02-18T17:55:48.208Z,11.09
2023-02-18T17:58:17.262Z,11.03
2023-02-18T18:00:51.827Z,11.01
2023-02-18T18:03:20.514Z,10.98
2023-02-18T18:05:50.919Z,10.96
2023-02-18T18:08:19.196Z,10.94
2023-02-18T18:10:50.998Z,10.91
2023-02-18T18:13:27.279Z,10.89
2023-02-18T18:15:57.643Z,10.86
2023-02-18T18:18:26.743Z,10.85
2023-02-18T18:21:02.360Z,10.84
2023-02-18T18:23:30.438Z,10.81
2023-02-18T18:25:59.769Z,10.79
2023-02-18T18:28:28.275Z,10.76
2023-02-18T18:30:57.773Z,10.74
2023-02-18T18:33:31.604Z,10.71
2023-02-18T18:36:00.517Z,10.69
2023-02-18T18:38:30.619Z,10.62
2023-02-18T18:40:58.372Z,10.63
2023-02-18T18:43:33.165Z,10.58
2023-02-18T18:46:01.552Z,10.56
2023-02-18T18:48:29.548Z,10.51
2023-02-18T18:50:59.943Z,10.47
2023-02-18T18:53:35.671Z,10.45
2023-02-18T18:56:09.452Z,10.44
2023-02-18T18:58:37.179Z,10.43
2023-02-18T19:01:08.293Z,10.40
2023-02-18T19:03:38.784Z,10.38
2023-02-18T19:06:06.893Z,10.36
2023-02-18T19:08:35.414Z,10.34
2023-02-18T19:11:03.511Z,10.28
2023-02-18T19:13:33.243Z,10.29
2023-02-18T19:16:16.141Z,10.28
2023-02-18T19:18:43.888Z,10.28
2023-02-18T19:21:13.283Z,10.25
2023-02-18T19:23:41.487Z,10.22
2023-02-18T19:26:09.894Z,10.21
2023-02-18T19:28:37.811Z,10.21
2023-02-18T19:31:11.052Z,10.21
2023-02-18T19:33:40.243Z,10.20
2023-02-18T19:36:12.728Z,10.19
2023-02-18T19:38:40.636Z,10.18
2023-02-18T19:41:13.924Z,10.19
2023-02-18T19:43:43.869Z,10.18
2023-02-18T19:46:14.479Z,10.18
2023-02-18T19:48:43.132Z,10.15
2023-02-18T19:51:11.394Z,10.15
2023-02-18T19:53:39.308Z,10.17
2023-02-18T19:56:08.547Z,10.15
2023-02-18T19:58:37.267Z,10.17
2023-02-18T20:01:05.439Z,10.18
2023-02-18T20:03:33.129Z,10.18
2023-02-18T20:06:00.924Z,10.20
2023-02-18T20:08:28.643Z,10.19
2023-02-18T20:11:00.282Z,10.22
2023-02-18T20:13:28.385Z,10.23
2023-02-18T20:15:56.285Z,10.24
2023-02-18T20:18:24.195Z,10.25
2023-02-18T20:20:52.731Z,10.24
2023-02-18T20:23:20.479Z,10.25
2023-02-18T20:25:48.757Z,10.26
2023-02-18T20:28:16.842Z,10.25
2023-02-18T20:30:45.346Z,10.26
2023-02-18T20:33:15.434Z,10.25
2023-02-18T20:35:43.119Z,10.24
2023-02-18T20:38:11.041Z,10.24
2023-02-18T20:40:38.847Z,10.23
2023-02-18T20:43:06.595Z,10.24
2023-02-18T20:45:34.506Z,10.24
2023-02-18T20:48:02.196Z,10.24
2023-02-18T20:50:30.046Z,10.22
2023-02-18T20:52:57.653Z,10.22
2023-02-18T20:55:25.375Z,10.21
2023-02-18T20:57:53.199Z,10.19
2023-02-18T21:00:20.955Z,10.18
2023-02-18T21:02:48.740Z,10.17
2023-02-18T21:05:16.673Z,10.15
2023-02-18T21:07:44.418Z,10.14
2023-02-18T21:10:12.136Z,10.13
2023-02-18T21:12:39.857Z,10.09
2023-02-18T21:15:07.823Z,10.08
2023-02-18T21:17:35.496Z,10.05
2023-02-18T21:20:03.101Z,10.03
2023-02-18T21:22:30.875Z,10.01
2023-02-18T21:25:00.234Z,9.98
2023-02-18T21:27:27.956Z,9.96
2023-02-18T21:29:56.177Z,9.94
2023-02-18T21:32:24.051Z,9.91
2023-02-18T21:34:52.027Z,9.88
2023-02-18T21:37:19.738Z,9.85
2023-02-18T21:39:47.586Z,9.83
2023-02-18T21:42:15.266Z,9.77
2023-02-18T21:44:43.385Z,9.74
2023-02-18T21:47:11.811Z,9.69
2023-02-18T21:49:39.667Z,9.66
2023-02-18T21:52:10.565Z,9.60
2023-02-18T21:54:41.058Z,9.58
2023-02-18T21:57:14.749Z,9.53
2023-02-18T21:59:43.181Z,9.47
2023-02-18T22:02:17.938Z,9.43
2023-02-18T22:04:46.741Z,9.39
2023-02-18T22:07:14.559Z,9.35
2023-02-18T22:09:42.391Z,9.32
2023-02-18T22:12:10.894Z,9.30
2023-02-18T22:14:39.607Z,9.26
2023-02-18T22:17:07.714Z,9.22
2023-02-18T22:19:35.746Z,9.20
2023-02-18T22:22:03.999Z,9.17
2023-02-18T22:24:32.775Z,9.13
2023-02-18T22:27:03.855Z,9.12
2023-02-18T22:29:33.266Z,9.12
2023-02-18T22:32:01.468Z,9.10
2023-02-18T22:34:29.549Z,9.11
2023-02-18T22:36:57.281Z,9.09
2023-02-18T22:39:25.617Z,9.08
2023-02-18T22:41:53.314Z,9.07
2023-02-18T22:44:21.574Z,9.08
2023-02-18T22:46:49.303Z,9.06
2023-02-18T22:49:17.133Z,9.04
2023-02-18T22:51:45.544Z,9.04
2023-02-18T22:54:17.939Z,9.03
2023-02-18T22:56:47.623Z,9.01
2023-02-18T22:59:17.310Z,9.00
2023-02-18T23:01:50.698Z,8.97
2023-02-18T23:04:19.963Z,8.89
2023-02-18T23:06:48.266Z,8.84
2023-02-18T23:09:19.461Z,8.84
2023-02-18T23:11:50.413Z,8.81
2023-02-18T23:14:22.466Z,8.80
2023-02-18T23:17:19.898Z,8.77
2023-02-18T23:19:50.305Z,8.77
2023-02-18T23:22:20.484Z,8.74
2023-02-18T23:24:48.549Z,8.76
2023-02-18T23:27:17.203Z,8.74
2023-02-18T23:29:44.951Z,8.74
2023-02-18T23:32:12.756Z,8.73
2023-02-18T23:34:40.595Z,8.72
2023-02-18T23:37:08.464Z,8.73
2023-02-18T23:39:36.374Z,8.72
2023-02-18T23:42:04.411Z,8.69
2023-02-18T23:44:32.177Z,8.70
2023-02-18T23:47:01.310Z,8.74
2023-02-18T23:49:29.908Z,8.76
2023-02-18T23:51:58.673Z,8.81
2023-02-18T23:54:26.596Z,8.85
2023-02-18T23:56:54.309Z,8.88
2023-02-18T23:59:22.395Z,8.91
